.
WxDataArchive / Data Records for 2009-09-08
2009-09-07 September 2009 2009-09-09

Data Records for Tuesday, 08 September 2009

Time	Temp	Chill	HIndex	Humid	Dewpt	 Wind 	HiWind	WindDir	Rain 	Barom 
-----	----	-----	------	-----	-----	------	------	-------	-----	----- 
00:00	63.9	63.9	63.9	93	61.8	0	0	---	0.00	30.058 
00:05	63.7	63.7	63.7	93	61.6	0	0	---	0.00	30.058 
00:10	63.9	63.9	63.9	94	62.1	0	0	---	0.00	30.058 
00:15	63.9	63.9	63.9	94	62.1	0	0	---	0.00	30.058 
00:20	63.9	63.9	63.9	94	62.1	0	0	---	0.00	30.058 
00:25	63.9	63.9	63.9	94	62.1	0	0	---	0.00	30.058 
00:30	63.9	63.9	63.9	94	62.1	0	0	---	0.00	30.058 
00:35	63.9	63.9	63.9	94	62.1	0	0	---	0.00	30.058 
00:40	63.9	63.9	63.9	94	62.1	0	0	---	0.00	30.058 
00:45	63.9	63.9	63.9	94	62.1	0	0	---	0.00	30.059 
00:50	64.0	64.0	64.0	94	62.2	1	2	90	0.00	30.059 
00:55	64.2	64.2	64.2	94	62.4	1	2	90	0.01	30.059 
01:00	64.2	64.2	64.2	94	62.4	0	1	90	0.00	30.060 
01:05	64.0	64.0	64.0	94	62.2	0	0	---	0.02	30.060 
01:10	64.0	64.0	64.0	94	62.2	0	0	---	0.03	30.060 
01:15	64.0	64.0	64.0	94	62.2	0	0	---	0.01	30.059 
01:20	64.0	64.0	64.0	94	62.2	0	0	---	0.01	30.059 
01:25	64.0	64.0	64.0	95	62.5	0	0	---	0.01	30.059 
01:30	64.0	64.0	64.0	95	62.5	0	0	---	0.01	30.057 
01:35	64.0	64.0	64.0	95	62.5	0	0	---	0.01	30.057 
01:40	63.9	63.9	63.9	95	62.4	0	0	---	0.00	30.057 
01:45	63.9	63.9	63.9	95	62.4	0	0	---	0.00	30.055 
01:50	63.9	63.9	63.9	95	62.4	0	0	---	0.00	30.055 
01:55	63.7	63.7	63.7	95	62.2	0	0	---	0.00	30.055 
02:00	63.7	63.7	63.7	95	62.2	0	0	---	0.00	30.051 
02:05	63.7	63.7	63.7	95	62.2	0	0	---	0.01	30.051 
02:10	63.7	63.7	63.7	95	62.2	0	0	---	0.00	30.051 
02:15	63.7	63.7	63.7	95	62.2	0	0	---	0.00	30.046 
02:20	63.7	63.7	63.7	95	62.2	0	0	---	0.00	30.046 
02:25	63.7	63.7	63.7	95	62.2	0	0	---	0.00	30.046 
02:30	63.7	63.7	63.7	95	62.2	0	0	---	0.00	30.044 
02:35	63.7	63.7	63.7	95	62.2	0	0	---	0.00	30.044 
02:40	63.7	63.7	63.7	95	62.2	0	0	---	0.00	30.044 
02:45	63.7	63.7	63.7	95	62.2	0	0	---	0.00	30.042 
02:50	63.7	63.7	63.7	95	62.2	0	0	---	0.00	30.042 
02:55	63.5	63.5	63.5	96	62.3	0	0	---	0.00	30.042 
03:00	63.5	63.5	63.5	96	62.3	0	0	---	0.00	30.042 
03:05	63.5	63.5	63.5	96	62.3	0	0	---	0.00	30.042 
03:10	63.5	63.5	63.5	96	62.3	0	0	---	0.00	30.042 
03:15	63.5	63.5	63.5	96	62.3	0	0	---	0.00	30.042 
03:20	63.5	63.5	63.5	96	62.3	0	0	---	0.00	30.042 
03:25	63.7	63.7	63.7	96	62.5	0	0	---	0.00	30.042 
03:30	63.7	63.7	63.7	96	62.5	0	0	---	0.00	30.042 
03:35	63.7	63.7	63.7	96	62.5	0	0	---	0.00	30.042 
03:40	63.5	63.5	63.5	96	62.3	0	0	---	0.00	30.042 
03:45	63.5	63.5	63.5	96	62.3	0	0	---	0.00	30.042 
03:50	63.5	63.5	63.5	96	62.3	0	0	---	0.00	30.042 
03:55	63.5	63.5	63.5	96	62.3	0	0	---	0.00	30.042 
04:00	63.5	63.5	63.5	96	62.3	0	0	---	0.00	30.043 
04:05	63.5	63.5	63.5	96	62.3	0	0	---	0.00	30.043 
04:10	63.5	63.5	63.5	96	62.3	0	0	---	0.00	30.043 
04:15	63.5	63.5	63.5	96	62.3	0	0	---	0.00	30.041 
04:20	63.4	63.4	63.4	96	62.2	0	0	---	0.00	30.041 
04:25	63.4	63.4	63.4	96	62.2	0	0	---	0.00	30.041 
04:30	63.4	63.4	63.4	96	62.2	0	1	90	0.00	30.041 
04:35	63.4	63.4	63.4	96	62.2	0	0	---	0.00	30.041 
04:40	63.2	63.2	63.2	96	62.0	0	0	---	0.00	30.041 
04:45	63.2	63.2	63.2	96	62.0	0	0	---	0.00	30.041 
04:50	63.1	63.1	63.1	96	61.9	0	0	---	0.00	30.041 
04:55	63.1	63.1	63.1	96	61.9	0	0	---	0.00	30.041 
05:00	63.1	63.1	63.1	96	61.9	0	0	---	0.00	30.041 
05:05	62.9	62.9	62.9	96	61.7	0	0	---	0.00	30.041 
05:10	62.9	62.9	62.9	96	61.7	0	0	---	0.00	30.041 
05:15	63.1	63.1	63.1	96	61.9	0	0	---	0.00	30.040 
05:20	63.1	63.1	63.1	96	61.9	0	1	90	0.00	30.040 
05:25	63.1	63.1	63.1	96	61.9	0	1	90	0.00	30.040 
05:30	63.1	63.1	63.1	96	61.9	0	1	90	0.00	30.039 
05:35	63.1	63.1	63.1	96	61.9	0	1	90	0.00	30.039 
05:40	63.2	63.2	63.2	96	62.0	0	0	---	0.00	30.039 
05:45	63.1	63.1	63.1	96	61.9	0	0	---	0.00	30.036 
05:50	63.1	63.1	63.1	96	61.9	0	0	---	0.00	30.036 
05:55	63.1	63.1	63.1	96	61.9	0	0	---	0.00	30.036 
06:00	62.9	62.9	62.9	96	61.7	0	0	---	0.00	30.036 
06:05	62.9	62.9	62.9	96	61.7	0	0	---	0.00	30.036 
06:10	62.9	62.9	62.9	96	61.7	0	0	---	0.00	30.036 
06:15	62.9	62.9	62.9	96	61.7	0	0	---	0.00	30.038 
06:20	62.9	62.9	62.9	96	61.7	0	0	---	0.00	30.038 
06:25	62.9	62.9	62.9	96	61.7	0	0	---	0.00	30.038 
06:30	62.9	62.9	62.9	96	61.7	0	0	---	0.00	30.039 
06:35	62.9	62.9	62.9	96	61.7	0	0	---	0.00	30.039 
06:40	62.9	62.9	62.9	96	61.7	0	0	---	0.00	30.039 
06:45	62.9	62.9	62.9	96	61.7	0	0	---	0.00	30.039 
06:50	62.9	62.9	62.9	96	61.7	0	0	---	0.00	30.039 
06:55	62.9	62.9	62.9	96	61.7	0	0	---	0.00	30.039 
07:00	62.9	62.9	62.9	96	61.7	0	0	---	0.00	30.041 
07:05	63.1	63.1	63.1	96	61.9	0	0	---	0.00	30.041 
07:10	63.1	63.1	63.1	96	61.9	0	0	---	0.00	30.041 
07:15	63.1	63.1	63.1	96	61.9	0	0	---	0.00	30.044 
07:20	63.2	63.2	63.2	96	62.0	0	0	---	0.00	30.044 
07:25	63.2	63.2	63.2	96	62.0	0	0	---	0.00	30.044 
07:30	63.2	63.2	63.2	96	62.0	0	1	90	0.00	30.044 
07:35	63.4	63.4	63.4	96	62.2	0	0	---	0.00	30.044 
07:40	63.4	63.4	63.4	96	62.2	0	0	---	0.00	30.044 
07:45	63.5	63.5	63.5	96	62.3	0	0	---	0.00	30.046 
07:50	63.7	63.7	63.7	96	62.5	0	0	---	0.00	30.046 
07:55	63.7	63.7	63.7	96	62.5	0	1	90	0.00	30.046 
08:00	63.9	63.9	63.9	96	62.7	0	0	---	0.00	30.050 
08:05	63.9	63.9	63.9	97	63.0	0	0	---	0.00	30.050 
08:10	64.0	64.0	64.0	97	63.1	0	1	90	0.00	30.050 
08:15	64.0	64.0	64.0	97	63.1	0	0	---	0.00	30.052 
08:20	64.2	64.2	64.2	97	63.3	0	3	90	0.00	30.052 
08:25	64.2	64.2	64.2	96	63.0	0	1	90	0.00	30.052 
08:30	64.2	64.2	64.2	97	63.3	0	1	90	0.00	30.055 
08:35	64.3	64.3	64.3	97	63.4	0	0	---	0.00	30.055 
08:40	64.5	64.5	64.5	97	63.6	0	2	90	0.00	30.055 
08:45	64.5	64.5	64.5	97	63.6	0	1	90	0.00	30.055 
08:50	64.7	64.7	64.7	97	63.8	0	1	90	0.00	30.055 
08:55	64.8	64.8	64.8	97	63.9	0	1	90	0.00	30.055 
09:00	64.8	64.8	64.8	96	63.6	0	1	90	0.00	30.056 
09:05	64.7	64.7	64.7	96	63.5	0	1	90	0.00	30.056 
09:10	64.7	64.7	64.7	96	63.5	0	0	---	0.00	30.056 
09:15	64.7	64.7	64.7	96	63.5	0	1	90	0.00	30.056 
09:20	64.7	64.7	64.7	96	63.5	0	1	90	0.00	30.056 
09:25	64.7	64.7	64.7	96	63.5	0	1	90	0.00	30.056 
09:30	64.8	64.8	64.8	96	63.6	0	0	---	0.00	30.056 
09:35	65.0	65.0	65.0	96	63.8	0	1	90	0.00	30.056 
09:40	65.2	65.2	65.2	96	64.0	0	1	90	0.00	30.056 
09:45	65.0	65.0	65.0	96	63.8	0	1	90	0.00	30.056 
09:50	64.8	64.8	64.8	96	63.6	0	0	---	0.00	30.056 
09:55	64.8	64.8	64.8	96	63.6	0	0	---	0.04	30.056 
10:00	64.8	64.8	64.8	96	63.6	0	0	---	0.06	30.057 
10:05	64.8	64.8	64.8	96	63.6	0	0	---	0.02	30.057 
10:10	64.8	64.8	64.8	96	63.6	0	0	---	0.00	30.057 
10:15	64.8	64.8	64.8	96	63.6	0	0	---	0.00	30.057 
10:20	64.8	64.8	64.8	96	63.6	0	1	90	0.00	30.057 
10:25	65.0	65.0	65.0	96	63.8	0	0	---	0.00	30.057 
10:30	65.0	65.0	65.0	96	63.8	0	0	---	0.00	30.057 
10:35	65.2	65.2	65.2	96	64.0	0	0	---	0.00	30.057 
10:40	65.3	65.3	65.3	96	64.1	0	1	90	0.01	30.057 
10:45	65.5	65.5	65.5	96	64.3	0	1	90	0.00	30.059 
10:50	65.6	65.6	65.6	96	64.4	0	0	---	0.01	30.059 
10:55	65.8	65.8	65.8	96	64.6	0	1	90	0.01	30.059 
11:00	66.0	66.0	66.0	96	64.8	0	1	90	0.00	30.061 
11:05	66.0	66.0	66.0	96	64.8	0	1	90	0.03	30.061 
11:10	66.0	66.0	66.0	96	64.8	0	1	90	0.01	30.061 
11:15	66.0	66.0	66.0	96	64.8	0	1	90	0.00	30.063 
11:20	66.1	66.1	66.1	96	64.9	0	1	90	0.00	30.063 
11:25	66.1	66.1	66.1	96	64.9	0	1	90	0.00	30.063 
11:30	66.1	66.1	66.1	96	64.9	0	0	---	0.00	30.063 
11:35	66.3	66.3	66.3	96	65.1	0	0	---	0.00	30.063 
11:40	66.3	66.3	66.3	96	65.1	0	2	90	0.00	30.063 
11:45	66.4	66.4	66.4	96	65.2	0	0	---	0.00	30.063 
11:50	66.8	66.8	66.8	97	65.9	0	0	---	0.00	30.063 
11:55	67.1	67.1	67.1	97	66.2	0	0	---	0.00	30.063 
12:00	67.1	67.1	67.1	96	65.9	0	1	90	0.00	30.062 
12:05	67.3	67.3	67.3	96	66.1	0	0	---	0.00	30.062 
12:10	67.4	67.4	67.4	96	66.2	0	1	90	0.00	30.062 
12:15	67.9	67.9	67.9	96	66.7	0	1	90	0.00	30.056 
12:20	67.9	67.9	67.9	96	66.7	0	0	---	0.00	30.056 
12:25	68.1	68.1	68.1	96	66.9	0	1	90	0.00	30.056 
12:30	67.9	67.9	67.9	96	66.7	0	2	90	0.00	30.056 
12:35	67.9	67.9	67.9	96	66.7	0	0	---	0.00	30.056 
12:40	67.8	67.8	67.8	96	66.6	0	1	90	0.00	30.056 
12:45	67.8	67.8	67.8	96	66.6	0	0	---	0.01	30.055 
12:50	67.8	67.8	67.8	96	66.6	0	0	---	0.00	30.055 
12:55	67.9	67.9	67.9	96	66.7	0	0	---	0.00	30.055 
13:00	67.8	67.8	67.8	96	66.6	0	1	90	0.01	30.053 
13:05	67.4	67.4	67.4	95	65.9	0	1	90	0.00	30.053 
13:10	67.3	67.3	67.3	95	65.8	0	1	90	0.03	30.053 
13:15	67.1	67.1	67.1	95	65.6	0	1	90	0.10	30.052 
13:20	66.9	66.9	66.9	95	65.4	0	1	90	0.04	30.052 
13:25	66.9	66.9	66.9	95	65.4	0	0	---	0.10	30.052 
13:30	66.8	66.8	66.8	95	65.3	0	1	90	0.13	30.049 
13:35	66.6	66.6	66.6	95	65.1	0	2	90	0.01	30.049 
13:40	66.6	66.6	66.6	96	65.4	0	1	90	0.00	30.049 
13:45	66.6	66.6	66.6	96	65.4	0	1	90	0.00	30.049 
13:50	66.9	66.9	66.9	96	65.7	0	1	90	0.00	30.049 
13:55	66.9	66.9	66.9	96	65.7	0	1	90	0.00	30.049 
14:00	66.9	66.9	66.9	96	65.7	0	0	---	0.00	30.047 
14:05	67.1	67.1	67.1	96	65.9	0	0	---	0.00	30.047 
14:10	66.9	66.9	66.9	96	65.7	0	1	90	0.00	30.047 
14:15	66.8	66.8	66.8	96	65.6	0	1	68	0.01	30.043 
14:20	66.9	66.9	66.9	96	65.7	0	0	---	0.01	30.043 
14:25	67.1	67.1	67.1	96	65.9	0	0	---	0.02	30.043 
14:30	67.3	67.3	67.3	96	66.1	0	0	---	0.02	30.044 
14:35	67.4	67.4	67.4	96	66.2	0	0	---	0.00	30.044 
14:40	67.6	67.6	67.6	96	66.4	0	1	68	0.03	30.044 
14:45	67.6	67.6	67.6	96	66.4	0	0	---	0.05	30.037 
14:50	67.6	67.6	67.6	96	66.4	0	1	68	0.03	30.037 
14:55	67.4	67.4	67.4	96	66.2	0	0	---	0.01	30.037 
15:00	67.6	67.6	67.6	96	66.4	0	1	68	0.00	30.030 
15:05	67.9	67.9	67.9	96	66.7	0	0	---	0.00	30.030 
15:10	67.9	67.9	67.9	96	66.7	0	0	---	0.00	30.030 
15:15	67.9	67.9	67.9	96	66.7	0	0	---	0.00	30.036 
15:20	67.9	67.9	67.9	96	66.7	0	1	68	0.00	30.036 
15:25	68.1	68.1	68.1	96	66.9	0	1	68	0.00	30.036 
15:30	68.6	68.6	68.6	96	67.4	0	0	---	0.00	30.025 
15:35	68.8	68.8	68.8	96	67.6	0	1	68	0.00	30.025 
15:40	68.4	68.4	68.4	96	67.2	0	2	68	0.00	30.025 
15:45	68.1	68.1	68.1	95	66.6	0	2	68	0.00	30.024 
15:50	67.9	67.9	67.9	95	66.4	0	1	68	0.00	30.024 
15:55	68.4	68.4	68.4	95	66.9	0	1	68	0.00	30.024 
16:00	69.1	69.1	69.1	95	67.6	0	3	112	0.00	30.013 
16:05	69.4	69.4	69.4	94	67.6	1	2	112	0.00	30.013 
16:10	69.8	69.8	69.8	94	68.0	1	4	90	0.00	30.013 
16:15	69.8	69.8	69.8	91	67.0	1	4	112	0.00	30.018 
16:20	69.9	69.9	69.9	89	66.5	0	2	112	0.00	30.018 
16:25	70.4	70.4	70.4	88	66.7	0	2	112	0.00	30.018 
16:30	70.8	70.8	70.8	85	66.1	1	3	112	0.00	30.014 
16:35	71.5	71.5	71.5	83	66.1	0	2	112	0.00	30.014 
16:40	72.1	72.1	72.1	82	66.3	1	3	112	0.00	30.014 
16:45	73.0	73.0	73.0	81	66.8	1	4	112	0.00	30.012 
16:50	73.2	73.2	73.2	77	65.5	1	2	112	0.00	30.012 
16:55	73.2	73.2	73.2	79	66.3	0	3	112	0.00	30.012 
17:00	73.2	73.2	73.2	81	67.0	1	3	112	0.00	30.006 
17:05	73.0	73.0	73.0	83	67.5	1	3	112	0.00	30.006 
17:10	72.8	72.8	72.8	82	67.0	1	2	112	0.00	30.006 
17:15	72.5	72.5	72.5	81	66.3	0	2	112	0.00	30.005 
17:20	72.3	72.3	72.3	81	66.1	0	2	112	0.00	30.005 
17:25	72.1	72.1	72.1	81	65.9	0	1	112	0.00	30.005 
17:30	72.1	72.1	72.1	81	65.9	0	2	112	0.00	30.006 
17:35	72.0	72.0	72.0	79	65.1	0	1	112	0.00	30.006 
17:40	71.8	71.8	71.8	79	64.9	0	2	112	0.00	30.006 
17:45	71.6	71.6	71.6	79	64.7	0	0	---	0.00	30.008 
17:50	71.6	71.6	71.6	79	64.7	0	2	112	0.00	30.008 
17:55	71.5	71.5	71.5	79	64.6	0	2	112	0.00	30.008 
18:00	71.5	71.5	71.5	79	64.6	0	1	112	0.00	30.007 
18:05	71.3	71.3	71.3	80	64.8	0	1	112	0.00	30.007 
18:10	71.3	71.3	71.3	81	65.2	0	1	112	0.00	30.007 
18:15	71.1	71.1	71.1	81	65.0	0	0	---	0.00	30.015 
18:20	70.9	70.9	70.9	83	65.5	0	0	---	0.00	30.015 
18:25	70.9	70.9	70.9	83	65.5	0	0	---	0.00	30.015 
18:30	70.8	70.8	70.8	83	65.4	0	0	---	0.00	30.013 
18:35	70.8	70.8	70.8	84	65.7	1	3	112	0.00	30.013 
18:40	70.8	70.8	70.8	85	66.1	0	1	112	0.00	30.013 
18:45	70.4	70.4	70.4	85	65.7	0	0	---	0.00	30.019 
18:50	70.3	70.3	70.3	85	65.6	0	1	112	0.00	30.019 
18:55	70.1	70.1	70.1	86	65.7	0	1	112	0.00	30.019 
19:00	69.9	69.9	69.9	86	65.5	0	0	---	0.00	30.023 
19:05	69.8	69.8	69.8	87	65.7	0	0	---	0.00	30.023 
19:10	69.6	69.6	69.6	87	65.6	0	1	112	0.00	30.023 
19:15	69.4	69.4	69.4	87	65.4	0	3	135	0.00	30.021 
19:20	69.4	69.4	69.4	87	65.4	1	3	135	0.00	30.021 
19:25	69.3	69.3	69.3	88	65.6	1	3	112	0.00	30.021 
19:30	69.1	69.1	69.1	88	65.4	0	2	112	0.00	30.029 
19:35	68.9	68.9	68.9	88	65.2	1	5	112	0.00	30.029 
19:40	68.8	68.8	68.8	89	65.4	1	4	135	0.00	30.029 
19:45	68.6	68.6	68.6	89	65.2	0	3	158	0.00	30.027 
19:50	68.6	68.6	68.6	90	65.5	0	3	22	0.00	30.027 
19:55	68.4	68.4	68.4	90	65.3	0	2	22	0.00	30.027 
20:00	68.4	68.4	68.4	90	65.3	0	3	22	0.00	30.027 
20:05	68.4	68.4	68.4	90	65.3	0	1	22	0.00	30.027 
20:10	68.3	68.3	68.3	90	65.2	0	2	22	0.00	30.027 
20:15	68.3	68.3	68.3	90	65.2	1	3	45	0.00	30.027 
20:20	68.3	68.3	68.3	90	65.2	0	1	45	0.00	30.027 
20:25	68.3	68.3	68.3	91	65.6	1	3	68	0.00	30.027 
20:30	68.3	68.3	68.3	91	65.6	0	2	68	0.00	30.029 
20:35	68.3	68.3	68.3	91	65.6	0	2	68	0.00	30.029 
20:40	68.3	68.3	68.3	91	65.6	0	2	68	0.00	30.029 
20:45	68.1	68.1	68.1	92	65.7	0	2	135	0.00	30.026 
20:50	68.1	68.1	68.1	92	65.7	0	2	112	0.00	30.026 
20:55	67.9	67.9	67.9	92	65.5	0	2	112	0.00	30.026 
21:00	67.8	67.8	67.8	92	65.4	0	3	112	0.00	30.029 
21:05	67.6	67.6	67.6	92	65.2	1	3	112	0.00	30.029 
21:10	67.4	67.4	67.4	93	65.3	0	2	112	0.00	30.029 
21:15	67.3	67.3	67.3	93	65.2	0	1	112	0.00	30.038 
21:20	67.1	67.1	67.1	93	65.0	0	2	112	0.00	30.038 
21:25	67.1	67.1	67.1	93	65.0	0	2	112	0.00	30.038 
21:30	66.9	66.9	66.9	93	64.8	0	1	112	0.00	30.039 
21:35	66.8	66.8	66.8	93	64.7	0	1	112	0.00	30.039 
21:40	66.6	66.6	66.6	94	64.8	0	0	---	0.00	30.039 
21:45	66.4	66.4	66.4	94	64.6	0	0	---	0.00	30.044 
21:50	66.4	66.4	66.4	94	64.6	0	1	112	0.00	30.044 
21:55	66.3	66.3	66.3	94	64.5	0	1	112	0.00	30.044 
22:00	66.1	66.1	66.1	94	64.3	0	1	112	0.00	30.046 
22:05	66.0	66.0	66.0	94	64.2	0	1	112	0.00	30.046 
22:10	66.0	66.0	66.0	94	64.2	1	3	112	0.00	30.046 
22:15	65.8	65.8	65.8	94	64.0	0	3	90	0.00	30.041 
22:20	65.6	65.6	65.6	94	63.8	0	0	---	0.00	30.041 
22:25	65.5	65.5	65.5	94	63.7	0	3	90	0.00	30.041 
22:30	65.3	65.3	65.3	94	63.5	0	1	90	0.00	30.044 
22:35	65.3	65.3	65.3	94	63.5	0	2	90	0.00	30.044 
22:40	65.2	65.2	65.2	94	63.4	0	1	90	0.00	30.044 
22:45	65.0	65.0	65.0	94	63.2	0	1	90	0.00	30.049 
22:50	65.0	65.0	65.0	94	63.2	0	0	---	0.00	30.049 
22:55	64.8	64.8	64.8	94	63.0	0	1	90	0.00	30.049 
23:00	64.7	64.7	64.7	95	63.2	0	1	90	0.00	30.055 
23:05	64.7	64.7	64.7	95	63.2	0	0	---	0.01	30.055 
23:10	64.5	64.5	64.5	95	63.0	0	0	---	0.00	30.055 
23:15	64.2	64.2	64.2	95	62.7	0	0	---	0.00	30.056 
23:20	64.0	64.0	64.0	95	62.5	0	0	---	0.00	30.056 
23:25	64.0	64.0	64.0	95	62.5	0	0	---	0.00	30.056 
23:30	63.9	63.9	63.9	95	62.4	0	1	90	0.00	30.054 
23:35	64.0	64.0	64.0	95	62.5	0	0	---	0.00	30.054 
23:40	64.0	64.0	64.0	95	62.5	0	0	---	0.00	30.054 
23:45	64.0	64.0	64.0	95	62.5	0	0	---	0.00	30.058 
23:50	64.2	64.2	64.2	96	63.0	0	0	---	0.00	30.058 
23:55	64.7	64.7	64.7	96	63.5	1	3	90	0.00	30.058 

CoCoRaHS
IN-AL-39
A2 Web Hosting
Creative Commons License
GoDaddy
search engine by freefind advanced

loaded 2018-11-17 22:30:04 • last modified 2010-11-18 10:43:29
Privacy PolicyDisclaimer
• wx.awcolley.com is powered by PmWiki v.2002016 •
• all content (unless otherwise noted) © 2018 A W Colley